Time,TemperatureF,DewpointF,PressureIn,WindDirection,WindDirectionDegrees,WindSpeedMPH,WindSpeedGustMPH,Humidity,HourlyPrecipIn,Conditions,Clouds,dailyrainin,SolarRadiationWatts/m^2,SoftwareType,DateUTC
2013-06-05 00:00:00,59.0,27.0,-100.00,SE,131,2.0,11.0,29,-99.99,,,-99.99,0.000000,,2013-06-05 06:00:00,
2013-06-05 00:52:00,59.0,27.0,-100.00,SE,131,2.0,11.0,29,-99.99,,,-99.99,0.000000,,2013-06-05 06:52:00,
2013-06-05 02:00:00,56.0,26.0,-100.00,NE,39,2.0,4.0,31,-99.99,,,-99.99,0.000000,,2013-06-05 08:00:00,
2013-06-05 02:52:00,56.0,26.0,-100.00,NE,39,2.0,4.0,31,-99.99,,,-99.99,0.000000,,2013-06-05 08:52:00,
2013-06-05 03:00:00,51.0,31.0,-100.00,ESE,114,1.0,5.0,45,-99.99,,,-99.99,0.000000,,2013-06-05 09:00:00,
2013-06-05 03:53:00,51.0,31.0,-100.00,ESE,114,1.0,5.0,45,-99.99,,,-99.99,0.000000,,2013-06-05 09:53:00,
2013-06-05 04:00:00,45.0,32.0,-100.00,ESE,119,2.0,3.0,60,-99.99,,,-99.99,0.000000,,2013-06-05 10:00:00,
2013-06-05 04:53:00,45.0,32.0,-100.00,ESE,119,2.0,3.0,60,-99.99,,,-99.99,0.000000,,2013-06-05 10:53:00,
2013-06-05 05:00:00,45.0,32.0,-100.00,SSE,151,4.0,4.0,60,-99.99,,,-99.99,0.000000,,2013-06-05 11:00:00,
2013-06-05 05:52:00,45.0,32.0,-100.00,SSE,151,4.0,4.0,60,-99.99,,,-99.99,0.000000,,2013-06-05 11:52:00,
2013-06-05 06:00:00,45.0,33.0,-100.00,SSE,150,4.0,6.0,64,-99.99,,,-99.99,0.610000,,2013-06-05 12:00:00,
2013-06-05 06:52:00,45.0,33.0,-100.00,SSE,150,4.0,6.0,64,-99.99,,,-99.99,0.610000,,2013-06-05 12:52:00,
2013-06-05 07:00:00,49.0,36.0,-100.00,SE,137,3.0,6.0,61,-99.99,,,-99.99,48.709999,,2013-06-05 13:00:00,
2013-06-05 07:52:00,49.0,36.0,-100.00,SE,137,3.0,6.0,61,-99.99,,,-99.99,48.709999,,2013-06-05 13:52:00,
2013-06-05 08:00:00,58.0,34.0,-100.00,South,174,3.0,7.0,41,-99.99,,,-99.99,218.000000,,2013-06-05 14:00:00,
2013-06-05 08:52:00,58.0,34.0,-100.00,South,174,3.0,7.0,41,-99.99,,,-99.99,218.000000,,2013-06-05 14:52:00,
2013-06-05 09:00:00,63.0,31.0,-100.00,South,183,2.0,6.0,29,-99.99,,,-99.99,410.799988,,2013-06-05 15:00:00,
2013-06-05 09:53:00,63.0,31.0,-100.00,South,183,2.0,6.0,29,-99.99,,,-99.99,410.799988,,2013-06-05 15:53:00,
2013-06-05 10:00:00,66.0,35.0,-100.00,NNE,23,4.0,5.0,32,-99.99,,,-99.99,599.500000,,2013-06-05 16:00:00,
2013-06-05 10:54:00,66.0,35.0,-100.00,NNE,23,4.0,5.0,32,-99.99,,,-99.99,599.500000,,2013-06-05 16:54:00,
2013-06-05 11:00:00,70.0,34.0,-100.00,NNE,20,6.0,10.0,26,-99.99,,,-99.99,769.500000,,2013-06-05 17:00:00,
2013-06-05 11:52:00,70.0,34.0,-100.00,NNE,20,6.0,10.0,26,-99.99,,,-99.99,769.500000,,2013-06-05 17:52:00,
2013-06-05 12:00:00,74.0,29.0,-100.00,NNE,18,7.0,12.0,19,-99.99,,,-99.99,901.000000,,2013-06-05 18:00:00,
2013-06-05 12:52:00,74.0,29.0,-100.00,NNE,18,7.0,12.0,19,-99.99,,,-99.99,901.000000,,2013-06-05 18:52:00,
2013-06-05 13:00:00,76.0,29.0,-100.00,NNE,26,6.0,12.0,18,-99.99,,,-99.99,977.000000,,2013-06-05 19:00:00,
2013-06-05 13:53:00,76.0,29.0,-100.00,NNE,26,6.0,12.0,18,-99.99,,,-99.99,977.000000,,2013-06-05 19:53:00,
2013-06-05 14:00:00,78.0,30.0,-100.00,NNE,16,7.0,14.0,17,-99.99,,,-99.99,996.000000,,2013-06-05 20:00:00,
2013-06-05 14:52:00,78.0,30.0,-100.00,NNE,16,7.0,14.0,17,-99.99,,,-99.99,996.000000,,2013-06-05 20:52:00,
2013-06-05 15:00:00,79.0,29.0,-100.00,NNE,18,9.0,16.0,16,-99.99,,,-99.99,969.000000,,2013-06-05 21:00:00,
2013-06-05 15:53:00,79.0,29.0,-100.00,NNE,18,9.0,16.0,16,-99.99,,,-99.99,969.000000,,2013-06-05 21:53:00,
2013-06-05 16:00:00,81.0,29.0,-100.00,North,9,8.0,18.0,15,-99.99,,,-99.99,881.000000,,2013-06-05 22:00:00,
2013-06-05 16:52:00,81.0,29.0,-100.00,North,9,8.0,18.0,15,-99.99,,,-99.99,881.000000,,2013-06-05 22:52:00,
2013-06-05 17:00:00,81.0,29.0,-100.00,North,5,9.0,15.0,15,-99.99,,,-99.99,746.099976,,2013-06-05 23:00:00,
2013-06-05 17:53:00,81.0,29.0,-100.00,North,5,9.0,15.0,15,-99.99,,,-99.99,746.099976,,2013-06-05 23:53:00,
2013-06-05 18:00:00,81.0,27.0,-100.00,NNE,13,9.0,-999.0,14,-99.99,,,-99.99,574.799988,,2013-06-06 00:00:00,
2013-06-05 18:52:00,81.0,27.0,-100.00,NNE,13,9.0,-999.0,14,-99.99,,,-99.99,574.799988,,2013-06-06 00:52:00,
2013-06-05 19:00:00,79.0,28.0,-100.00,North,6,12.0,-999.0,15,-99.99,,,-99.99,381.500000,,2013-06-06 01:00:00,
2013-06-05 19:53:00,79.0,28.0,-100.00,North,6,12.0,-999.0,15,-99.99,,,-99.99,381.500000,,2013-06-06 01:53:00,
2013-06-05 20:00:00,76.0,31.0,-100.00,North,3,11.0,16.0,19,-99.99,,,-99.99,189.000000,,2013-06-06 02:00:00,
2013-06-05 21:00:00,67.0,31.0,-100.00,North,357,7.0,16.0,26,-99.99,,,-99.99,35.450001,,2013-06-06 03:00:00,
2013-06-05 21:52:00,67.0,31.0,-100.00,North,357,7.0,16.0,26,-99.99,,,-99.99,35.450001,,2013-06-06 03:52:00,
2013-06-05 22:00:00,64.0,31.0,-100.00,NE,44,5.0,11.0,29,-99.99,,,-99.99,0.190000,,2013-06-06 04:00:00,
2013-06-05 22:53:00,64.0,31.0,-100.00,NE,44,5.0,11.0,29,-99.99,,,-99.99,0.190000,,2013-06-06 04:53:00,
2013-06-05 23:00:00,61.0,30.0,-100.00,ENE,71,5.0,7.0,31,-99.99,,,-99.99,0.000000,,2013-06-06 05:00:00,
2013-06-05 23:52:00,61.0,30.0,-100.00,ENE,71,5.0,7.0,31,-99.99,,,-99.99,0.000000,,2013-06-06 05:52:00,